createdAt,value
2018-09-06T00:00:44.322Z,16.90
2018-09-06T00:04:48.012Z,16.90
2018-09-06T00:08:51.689Z,16.90
2018-09-06T00:12:55.341Z,16.80
2018-09-06T00:16:58.964Z,16.80
2018-09-06T00:21:02.613Z,16.70
2018-09-06T00:25:06.401Z,16.70
2018-09-06T00:29:10.081Z,16.60
2018-09-06T00:33:13.737Z,16.60
2018-09-06T00:37:17.344Z,16.50
2018-09-06T00:41:21.060Z,16.50
2018-09-06T00:45:24.740Z,16.50
2018-09-06T00:49:28.472Z,16.50
2018-09-06T00:53:32.179Z,16.50
2018-09-06T00:57:35.958Z,16.40
2018-09-06T01:01:39.619Z,16.40
2018-09-06T01:05:43.327Z,16.40
2018-09-06T01:09:46.968Z,16.40
2018-09-06T01:13:50.679Z,16.30
2018-09-06T01:17:54.277Z,16.30
2018-09-06T01:21:57.988Z,16.30
2018-09-06T01:26:01.711Z,16.20
2018-09-06T01:30:05.640Z,16.20
2018-09-06T01:34:09.291Z,16.20
2018-09-06T01:38:12.998Z,16.20
2018-09-06T01:42:16.657Z,16.20
2018-09-06T01:46:20.299Z,16.10
2018-09-06T01:50:23.964Z,16.10
2018-09-06T01:54:27.676Z,16.10
2018-09-06T01:58:31.295Z,16.10
2018-09-06T02:02:34.954Z,16.10
2018-09-06T02:06:38.715Z,16.10
2018-09-06T02:10:42.408Z,16.10
2018-09-06T02:14:46.134Z,16.00
2018-09-06T02:18:49.913Z,16.10
2018-09-06T02:22:53.781Z,16.00
2018-09-06T02:26:57.437Z,16.00
2018-09-06T02:31:01.212Z,16.00
2018-09-06T02:35:04.903Z,15.90
2018-09-06T02:39:09.713Z,15.90
2018-09-06T02:43:14.040Z,15.90
2018-09-06T02:47:17.697Z,15.90
2018-09-06T02:51:21.875Z,15.90
2018-09-06T02:55:27.081Z,15.80
2018-09-06T02:59:30.757Z,15.80
2018-09-06T03:03:34.414Z,15.80
2018-09-06T03:07:38.110Z,15.80
2018-09-06T03:11:47.133Z,15.80
2018-09-06T03:15:50.854Z,15.80
2018-09-06T03:19:54.530Z,15.80
2018-09-06T03:23:58.240Z,15.80
2018-09-06T03:28:02.603Z,15.80
2018-09-06T03:32:06.384Z,15.80
2018-09-06T03:36:10.075Z,15.80
2018-09-06T03:40:13.725Z,15.80
2018-09-06T03:44:17.465Z,15.80
2018-09-06T03:48:21.136Z,15.80
2018-09-06T03:52:24.804Z,15.80
2018-09-06T03:56:28.459Z,15.80
2018-09-06T04:00:32.107Z,15.80
2018-09-06T04:04:35.813Z,15.80
2018-09-06T04:08:39.594Z,15.80
2018-09-06T04:12:43.253Z,15.80
2018-09-06T04:16:46.883Z,15.80
2018-09-06T04:20:50.561Z,15.80
2018-09-06T04:24:54.212Z,15.80
2018-09-06T04:28:57.952Z,15.70
2018-09-06T04:33:01.637Z,15.70
2018-09-06T04:37:05.299Z,15.70
2018-09-06T04:41:09.051Z,15.70
2018-09-06T04:45:12.721Z,15.60
2018-09-06T04:49:16.525Z,15.60
2018-09-06T04:53:20.168Z,15.60
2018-09-06T04:57:23.862Z,15.60
2018-09-06T05:01:27.575Z,15.60
2018-09-06T05:05:31.220Z,15.60
2018-09-06T05:09:34.876Z,15.50
2018-09-06T05:13:38.528Z,15.50
2018-09-06T05:17:42.163Z,15.50
2018-09-06T05:21:45.809Z,15.50
2018-09-06T05:25:49.467Z,15.50
2018-09-06T05:29:53.145Z,15.50
2018-09-06T05:33:56.828Z,15.50
2018-09-06T05:38:00.453Z,15.50
2018-09-06T05:42:04.176Z,15.60
2018-09-06T05:46:08.495Z,15.60
2018-09-06T05:51:15.081Z,15.60
2018-09-06T05:55:18.775Z,15.60
2018-09-06T05:59:22.457Z,15.60
2018-09-06T06:03:26.173Z,15.70
2018-09-06T06:07:40.809Z,15.80
2018-09-06T06:11:44.573Z,15.80
2018-09-06T06:15:48.283Z,15.80
2018-09-06T06:19:52.032Z,15.90
2018-09-06T06:23:56.560Z,15.90
2018-09-06T06:28:00.350Z,16.00
2018-09-06T06:32:04.143Z,16.10
2018-09-06T06:36:07.952Z,16.20
2018-09-06T06:40:11.721Z,16.30
2018-09-06T06:44:15.413Z,16.40
2018-09-06T06:48:19.109Z,16.50
2018-09-06T06:52:22.847Z,16.70
2018-09-06T06:56:26.533Z,16.80
2018-09-06T07:00:30.282Z,16.90
2018-09-06T07:04:34.178Z,17.00
2018-09-06T07:08:37.926Z,17.20
2018-09-06T07:12:41.620Z,17.30
2018-09-06T07:16:45.280Z,17.40
2018-09-06T07:20:48.969Z,17.60
2018-09-06T07:24:52.604Z,17.70
2018-09-06T07:28:56.318Z,17.80
2018-09-06T07:33:00.035Z,18.00
2018-09-06T07:37:03.734Z,18.20
2018-09-06T07:41:07.603Z,18.90
2018-09-06T07:45:11.263Z,20.00
2018-09-06T07:49:15.003Z,21.40
2018-09-06T07:53:18.685Z,22.80
2018-09-06T07:57:22.391Z,23.90
2018-09-06T08:01:26.123Z,25.00
2018-09-06T08:05:29.786Z,25.90
2018-09-06T08:09:33.512Z,26.80
2018-09-06T08:13:37.237Z,27.50
2018-09-06T08:17:40.948Z,27.90
2018-09-06T08:21:44.680Z,28.00
2018-09-06T08:25:48.396Z,28.30
2018-09-06T08:29:52.195Z,28.40
2018-09-06T08:33:55.934Z,28.10
2018-09-06T08:37:59.639Z,27.50
2018-09-06T08:42:03.353Z,26.80
2018-09-06T08:46:07.116Z,26.20
2018-09-06T08:50:10.808Z,25.70
2018-09-06T08:54:14.544Z,25.30
2018-09-06T08:58:18.285Z,24.90
2018-09-06T09:02:22.356Z,24.50
2018-09-06T09:06:26.144Z,24.30
2018-09-06T09:10:29.880Z,24.10
2018-09-06T09:14:33.611Z,23.90
2018-09-06T09:18:37.296Z,23.90
2018-09-06T09:22:40.989Z,23.80
2018-09-06T09:26:44.768Z,23.80
2018-09-06T09:30:48.516Z,23.80
2018-09-06T09:34:52.221Z,23.80
2018-09-06T09:38:56.038Z,23.80
2018-09-06T09:42:59.760Z,23.90
2018-09-06T09:51:06.439Z,23.90
2018-09-06T09:55:10.207Z,24.00
2018-09-06T09:59:13.990Z,24.00
2018-09-06T10:03:23.077Z,24.10
2018-09-06T10:07:32.207Z,24.20
2018-09-06T10:11:35.905Z,24.30
2018-09-06T10:15:40.243Z,24.40
2018-09-06T10:19:44.048Z,24.40
2018-09-06T10:23:47.897Z,24.60
2018-09-06T10:27:51.742Z,24.60
2018-09-06T10:31:55.437Z,24.60
2018-09-06T10:35:59.131Z,24.60
2018-09-06T10:40:03.107Z,24.70
2018-09-06T10:44:06.852Z,24.80
2018-09-06T10:48:10.556Z,24.90
2018-09-06T10:52:14.201Z,25.10
2018-09-06T10:56:17.976Z,25.20
2018-09-06T11:00:21.756Z,25.30
2018-09-06T11:04:25.580Z,25.30
2018-09-06T11:08:29.389Z,25.40
2018-09-06T11:12:33.058Z,25.50
2018-09-06T11:16:36.896Z,25.50
2018-09-06T11:20:40.594Z,25.60
2018-09-06T11:24:44.281Z,25.70
2018-09-06T11:28:48.090Z,25.80
2018-09-06T11:32:51.772Z,25.80
2018-09-06T11:36:55.566Z,25.90
2018-09-06T11:40:59.243Z,25.90
2018-09-06T11:45:03.122Z,26.00
2018-09-06T11:49:06.959Z,26.10
2018-09-06T11:53:10.753Z,26.20
2018-09-06T11:57:14.556Z,26.30
2018-09-06T12:01:18.325Z,26.30
2018-09-06T12:05:22.041Z,26.40
2018-09-06T12:09:25.814Z,26.40
2018-09-06T12:13:29.463Z,26.50
2018-09-06T12:17:33.168Z,26.50
2018-09-06T12:21:36.924Z,26.50
2018-09-06T12:25:40.709Z,26.50
2018-09-06T12:29:44.423Z,26.50
2018-09-06T12:33:48.178Z,26.40
2018-09-06T12:37:51.855Z,26.30
2018-09-06T12:41:55.628Z,26.20
2018-09-06T12:45:59.420Z,26.10
2018-09-06T12:50:03.317Z,26.00
2018-09-06T12:54:07.025Z,25.90
2018-09-06T12:58:10.750Z,25.70
2018-09-06T13:02:14.428Z,25.60
2018-09-06T13:06:18.205Z,25.30
2018-09-06T13:10:21.881Z,25.10
2018-09-06T13:14:25.587Z,25.00
2018-09-06T13:18:29.301Z,24.80
2018-09-06T13:22:32.975Z,24.60
2018-09-06T13:26:36.661Z,24.40
2018-09-06T13:30:40.364Z,24.30
2018-09-06T13:34:44.092Z,24.00
2018-09-06T13:38:47.867Z,23.90
2018-09-06T13:42:52.343Z,23.70
2018-09-06T13:46:56.064Z,23.50
2018-09-06T13:50:59.740Z,23.50
2018-09-06T13:55:03.400Z,23.40
2018-09-06T13:59:07.201Z,23.30
2018-09-06T14:03:10.887Z,23.20
2018-09-06T14:07:14.582Z,23.20
2018-09-06T14:11:18.283Z,23.10
2018-09-06T14:15:21.962Z,23.00
2018-09-06T14:19:25.671Z,23.00
2018-09-06T14:23:29.355Z,22.90
2018-09-06T14:27:33.092Z,22.90
2018-09-06T14:31:36.799Z,22.90
2018-09-06T14:35:40.457Z,22.80
2018-09-06T14:39:44.261Z,22.80
2018-09-06T14:43:48.012Z,22.70
2018-09-06T14:47:51.691Z,22.70
2018-09-06T14:51:55.391Z,22.70
2018-09-06T14:55:59.069Z,22.70
2018-09-06T15:00:02.841Z,22.60
2018-09-06T15:04:06.592Z,22.60
2018-09-06T15:08:10.400Z,22.50
2018-09-06T15:12:14.119Z,22.40
2018-09-06T15:16:17.938Z,22.30
2018-09-06T15:20:21.676Z,22.30
2018-09-06T15:24:25.359Z,22.30
2018-09-06T15:28:29.092Z,22.30
2018-09-06T15:32:32.788Z,22.20
2018-09-06T15:36:36.454Z,22.20
2018-09-06T15:40:40.148Z,22.10
2018-09-06T15:44:43.829Z,22.10
2018-09-06T15:48:47.616Z,22.00
2018-09-06T15:52:51.311Z,22.00
2018-09-06T15:56:54.954Z,22.00
2018-09-06T16:00:58.649Z,22.00
2018-09-06T16:05:02.379Z,22.00
2018-09-06T16:09:13.028Z,22.00
2018-09-06T16:13:16.725Z,22.00
2018-09-06T16:17:20.397Z,21.90
2018-09-06T16:21:24.173Z,21.90
2018-09-06T16:25:27.870Z,21.90
2018-09-06T16:29:31.647Z,22.00
2018-09-06T16:33:35.304Z,22.00
2018-09-06T16:37:45.771Z,22.00
2018-09-06T16:41:49.454Z,22.10
2018-09-06T16:45:53.116Z,22.10
2018-09-06T16:49:56.864Z,22.20
2018-09-06T16:54:00.582Z,22.20
2018-09-06T16:58:04.500Z,22.20
2018-09-06T17:02:08.449Z,22.20
2018-09-06T17:06:12.255Z,22.20
2018-09-06T17:10:16.057Z,22.10
2018-09-06T17:14:19.759Z,22.10
2018-09-06T17:18:23.465Z,22.00
2018-09-06T17:22:27.820Z,22.00
2018-09-06T17:26:31.552Z,22.00
2018-09-06T17:30:35.278Z,21.90
2018-09-06T17:34:39.276Z,21.90
2018-09-06T17:38:43.199Z,21.90
2018-09-06T17:42:47.006Z,21.90
2018-09-06T17:46:50.909Z,21.80
2018-09-06T17:50:54.780Z,21.80
2018-09-06T17:54:58.515Z,21.80
2018-09-06T17:59:02.300Z,21.70
2018-09-06T18:03:06.057Z,21.70
2018-09-06T18:07:09.856Z,21.60
2018-09-06T18:11:13.726Z,21.60
2018-09-06T18:15:17.774Z,21.50
2018-09-06T18:19:21.731Z,21.40
2018-09-06T18:23:25.927Z,21.40
2018-09-06T18:27:29.929Z,21.30
2018-09-06T18:31:33.811Z,21.20
2018-09-06T18:35:37.524Z,21.20
2018-09-06T18:39:41.214Z,21.10
2018-09-06T18:43:44.944Z,21.10
2018-09-06T18:47:48.691Z,21.10
2018-09-06T18:51:52.402Z,21.00
2018-09-06T18:55:56.149Z,20.90
2018-09-06T18:59:59.849Z,20.90
2018-09-06T19:04:03.507Z,20.80
2018-09-06T19:08:07.175Z,20.80
2018-09-06T19:12:10.868Z,20.70
2018-09-06T19:16:14.547Z,20.70
2018-09-06T19:20:18.322Z,20.70
2018-09-06T19:24:21.924Z,20.60
2018-09-06T19:28:25.713Z,20.50
2018-09-06T19:32:29.419Z,20.50
2018-09-06T19:36:33.159Z,20.40
2018-09-06T19:40:36.851Z,20.40
2018-09-06T19:44:40.491Z,20.30
2018-09-06T19:48:44.156Z,20.30
2018-09-06T19:52:47.819Z,20.20
2018-09-06T19:56:51.473Z,20.20
2018-09-06T20:00:55.128Z,20.10
2018-09-06T20:04:58.827Z,20.10
2018-09-06T20:09:02.517Z,20.00
2018-09-06T20:13:06.369Z,19.90
2018-09-06T20:17:10.056Z,19.90
2018-09-06T20:21:13.769Z,19.90
2018-09-06T20:25:17.447Z,19.80
2018-09-06T20:29:21.139Z,19.70
2018-09-06T20:33:24.820Z,19.70
2018-09-06T20:37:28.491Z,19.70
2018-09-06T20:41:32.161Z,19.60
2018-09-06T20:45:35.800Z,19.60
2018-09-06T20:49:39.527Z,19.60
2018-09-06T20:53:43.232Z,19.60
2018-09-06T20:57:46.859Z,19.60
2018-09-06T21:01:50.551Z,19.60
2018-09-06T21:05:54.289Z,19.60
2018-09-06T21:09:58.061Z,19.50
2018-09-06T21:14:01.799Z,19.50
2018-09-06T21:18:05.498Z,19.50
2018-09-06T21:22:09.188Z,19.50
2018-09-06T21:26:12.793Z,19.50
2018-09-06T21:30:16.500Z,19.50
2018-09-06T21:34:20.252Z,19.60
2018-09-06T21:38:24.020Z,19.50
2018-09-06T21:42:27.701Z,19.60
2018-09-06T21:46:31.523Z,19.50
2018-09-06T21:50:35.186Z,19.50
2018-09-06T21:54:38.842Z,19.50
2018-09-06T21:58:42.546Z,19.50
2018-09-06T22:02:51.563Z,19.60
2018-09-06T22:06:55.241Z,19.50
2018-09-06T22:10:58.912Z,19.50
2018-09-06T22:15:02.668Z,19.50
2018-09-06T22:19:06.621Z,19.50
2018-09-06T22:23:10.339Z,19.50
2018-09-06T22:27:14.095Z,19.50
2018-09-06T22:31:17.741Z,19.50
2018-09-06T22:35:21.401Z,19.50
2018-09-06T22:39:25.120Z,19.50
2018-09-06T22:43:28.780Z,19.50
2018-09-06T22:47:32.483Z,19.50
2018-09-06T22:51:36.095Z,19.50
2018-09-06T22:55:39.756Z,19.40
2018-09-06T22:59:43.475Z,19.40
2018-09-06T23:03:51.333Z,19.40
2018-09-06T23:07:55.036Z,19.40
2018-09-06T23:11:58.661Z,19.40
2018-09-06T23:16:02.328Z,19.30
2018-09-06T23:20:06.125Z,19.30
2018-09-06T23:24:09.795Z,19.30
2018-09-06T23:28:13.495Z,19.30
2018-09-06T23:32:23.456Z,19.30
2018-09-06T23:36:27.136Z,19.30
2018-09-06T23:40:35.012Z,19.20
2018-09-06T23:44:38.748Z,19.20
2018-09-06T23:48:42.432Z,19.20
2018-09-06T23:52:46.087Z,19.20
2018-09-06T23:56:49.759Z,19.20
